sensor_id;sensor_type;location;lat;lon;timestamp;pressure;altitude;pressure_sealevel;temperature;humidity
44198;BME280;30157;55.512;37.764;2023-08-21T00:01:15;100035.53;;;16.77;80.35
44198;BME280;30157;55.512;37.764;2023-08-21T00:03:41;100043.59;;;16.70;80.49
44198;BME280;30157;55.512;37.764;2023-08-21T00:06:07;100013.47;;;16.52;80.20
44198;BME280;30157;55.512;37.764;2023-08-21T00:08:33;100048.81;;;16.70;79.94
44198;BME280;30157;55.512;37.764;2023-08-21T00:10:59;100048.06;;;16.65;80.15
44198;BME280;30157;55.512;37.764;2023-08-21T00:13:24;100018.00;;;16.46;79.70
44198;BME280;30157;55.512;37.764;2023-08-21T00:15:50;100001.91;;;16.26;79.38
44198;BME280;30157;55.512;37.764;2023-08-21T00:18:16;100045.97;;;16.44;79.54
44198;BME280;30157;55.512;37.764;2023-08-21T00:20:41;100049.56;;;16.40;80.15
44198;BME280;30157;55.512;37.764;2023-08-21T00:23:08;100029.91;;;16.24;79.77
44198;BME280;30157;55.512;37.764;2023-08-21T00:25:34;100035.94;;;16.26;79.31
44198;BME280;30157;55.512;37.764;2023-08-21T00:28:00;100039.53;;;16.22;79.61
44198;BME280;30157;55.512;37.764;2023-08-21T00:30:26;100036.16;;;16.17;79.43
44198;BME280;30157;55.512;37.764;2023-08-21T00:32:52;100063.88;;;16.27;79.74
44198;BME280;30157;55.512;37.764;2023-08-21T00:35:19;100064.69;;;16.29;79.98
44198;BME280;30157;55.512;37.764;2023-08-21T00:37:45;100050.72;;;16.28;79.81
44198;BME280;30157;55.512;37.764;2023-08-21T00:40:12;100034.69;;;16.06;79.62
44198;BME280;30157;55.512;37.764;2023-08-21T00:42:39;100057.88;;;16.22;79.87
44198;BME280;30157;55.512;37.764;2023-08-21T00:45:05;100053.59;;;16.18;79.78
44198;BME280;30157;55.512;37.764;2023-08-21T00:47:35;100054.72;;;16.09;79.94
44198;BME280;30157;55.512;37.764;2023-08-21T00:50:01;100056.34;;;16.13;80.02
44198;BME280;30157;55.512;37.764;2023-08-21T00:52:30;100050.53;;;16.00;80.37
44198;BME280;30157;55.512;37.764;2023-08-21T00:54:56;100055.72;;;16.02;80.05
44198;BME280;30157;55.512;37.764;2023-08-21T00:57:22;99999.91;;;15.62;79.90
44198;BME280;30157;55.512;37.764;2023-08-21T00:59:48;100063.03;;;15.89;79.95
44198;BME280;30157;55.512;37.764;2023-08-21T01:02:14;100046.63;;;15.81;80.54
44198;BME280;30157;55.512;37.764;2023-08-21T01:04:41;100055.09;;;15.92;80.35
44198;BME280;30157;55.512;37.764;2023-08-21T01:07:07;100052.59;;;15.86;80.35
44198;BME280;30157;55.512;37.764;2023-08-21T01:09:54;100059.47;;;15.91;80.21
44198;BME280;30157;55.512;37.764;2023-08-21T01:12:32;100053.53;;;15.85;80.76
44198;BME280;30157;55.512;37.764;2023-08-21T01:15:05;100037.91;;;15.78;80.51
44198;BME280;30157;55.512;37.764;2023-08-21T01:17:36;100057.72;;;15.92;80.47
44198;BME280;30157;55.512;37.764;2023-08-21T01:20:04;100023.25;;;15.71;80.44
44198;BME280;30157;55.512;37.764;2023-08-21T01:22:39;100051.78;;;15.84;80.39
44198;BME280;30157;55.512;37.764;2023-08-21T01:25:07;100057.88;;;15.84;79.95
44198;BME280;30157;55.512;37.764;2023-08-21T01:27:34;100000.19;;;15.50;80.14
44198;BME280;30157;55.512;37.764;2023-08-21T01:30:02;100036.25;;;15.74;80.03
44198;BME280;30157;55.512;37.764;2023-08-21T01:35:16;100054.47;;;15.79;79.61
44198;BME280;30157;55.512;37.764;2023-08-21T01:37:42;100044.44;;;15.60;79.57
44198;BME280;30157;55.512;37.764;2023-08-21T01:40:08;100018.75;;;15.37;79.59
44198;BME280;30157;55.512;37.764;2023-08-21T01:42:34;100048.91;;;15.55;79.80
44198;BME280;30157;55.512;37.764;2023-08-21T01:45:00;100056.66;;;15.58;79.90
44198;BME280;30157;55.512;37.764;2023-08-21T01:47:29;100048.91;;;15.55;79.76
44198;BME280;30157;55.512;37.764;2023-08-21T01:49:55;100046.38;;;15.51;79.57
44198;BME280;30157;55.512;37.764;2023-08-21T01:52:21;99881.28;;;14.42;79.39
44198;BME280;30157;55.512;37.764;2023-08-21T01:54:50;100013.00;;;15.20;79.59
44198;BME280;30157;55.512;37.764;2023-08-21T01:57:16;100051.13;;;15.32;79.88
44198;BME280;30157;55.512;37.764;2023-08-21T01:59:42;99989.19;;;14.91;79.99
44198;BME280;30157;55.512;37.764;2023-08-21T02:02:10;100036.50;;;15.23;80.54
44198;BME280;30157;55.512;37.764;2023-08-21T02:04:36;100049.38;;;15.32;79.73
44198;BME280;30157;55.512;37.764;2023-08-21T02:07:02;100013.25;;;15.09;79.93
44198;BME280;30157;55.512;37.764;2023-08-21T02:09:27;100052.97;;;15.28;79.40
44198;BME280;30157;55.512;37.764;2023-08-21T02:11:53;100056.59;;;15.19;79.40
44198;BME280;30157;55.512;37.764;2023-08-21T02:14:19;100058.59;;;15.06;79.82
44198;BME280;30157;55.512;37.764;2023-08-21T02:16:45;100018.41;;;14.67;80.22
44198;BME280;30157;55.512;37.764;2023-08-21T02:19:11;100065.81;;;14.93;80.48
44198;BME280;30157;55.512;37.764;2023-08-21T02:21:36;100061.63;;;14.85;80.49
44198;BME280;30157;55.512;37.764;2023-08-21T02:24:02;100063.13;;;14.97;80.57
44198;BME280;30157;55.512;37.764;2023-08-21T02:26:28;100050.22;;;14.89;80.63
44198;BME280;30157;55.512;37.764;2023-08-21T02:28:54;100070.06;;;14.99;80.63
44198;BME280;30157;55.512;37.764;2023-08-21T02:31:20;100078.03;;;14.93;80.91
44198;BME280;30157;55.512;37.764;2023-08-21T02:33:46;100078.13;;;14.87;81.37
44198;BME280;30157;55.512;37.764;2023-08-21T02:36:12;100060.13;;;14.71;81.23
44198;BME280;30157;55.512;37.764;2023-08-21T02:38:37;100076.53;;;14.78;81.27
44198;BME280;30157;55.512;37.764;2023-08-21T02:41:03;100078.50;;;14.67;81.93
44198;BME280;30157;55.512;37.764;2023-08-21T02:43:29;100020.75;;;14.31;82.07
44198;BME280;30157;55.512;37.764;2023-08-21T02:45:55;100039.84;;;14.34;82.26
44198;BME280;30157;55.512;37.764;2023-08-21T02:48:21;100070.88;;;14.53;82.51
44198;BME280;30157;55.512;37.764;2023-08-21T02:50:47;100088.09;;;14.66;82.21
44198;BME280;30157;55.512;37.764;2023-08-21T02:53:13;100075.22;;;14.52;82.11
44198;BME280;30157;55.512;37.764;2023-08-21T02:55:39;100088.22;;;14.57;82.16
44198;BME280;30157;55.512;37.764;2023-08-21T02:58:05;100046.13;;;14.22;82.50
44198;BME280;30157;55.512;37.764;2023-08-21T03:00:30;100090.88;;;14.52;82.73
44198;BME280;30157;55.512;37.764;2023-08-21T03:02:56;100097.78;;;14.56;82.94
44198;BME280;30157;55.512;37.764;2023-08-21T03:05:22;100056.34;;;14.36;82.74
44198;BME280;30157;55.512;37.764;2023-08-21T03:07:48;100082.19;;;14.52;82.67
44198;BME280;30157;55.512;37.764;2023-08-21T03:10:14;100087.34;;;14.56;82.99
44198;BME280;30157;55.512;37.764;2023-08-21T03:12:39;100068.28;;;14.50;82.79
44198;BME280;30157;55.512;37.764;2023-08-21T03:15:06;100088.94;;;14.67;82.73
44198;BME280;30157;55.512;37.764;2023-08-21T03:17:32;100088.84;;;14.73;82.60
44198;BME280;30157;55.512;37.764;2023-08-21T03:19:58;100097.44;;;14.78;82.38
44198;BME280;30157;55.512;37.764;2023-08-21T03:22:25;100076.72;;;14.69;82.00
44198;BME280;30157;55.512;37.764;2023-08-21T03:24:51;100096.53;;;14.81;81.96
44198;BME280;30157;55.512;37.764;2023-08-21T03:27:16;100101.59;;;14.90;81.85
44198;BME280;30157;55.512;37.764;2023-08-21T03:29:43;100092.84;;;14.92;81.78
44198;BME280;30157;55.512;37.764;2023-08-21T03:32:15;100086.81;;;14.87;81.26
44198;BME280;30157;55.512;37.764;2023-08-21T03:34:42;100103.09;;;15.03;81.30
44198;BME280;30157;55.512;37.764;2023-08-21T03:37:07;100051.31;;;14.77;81.26
44198;BME280;30157;55.512;37.764;2023-08-21T03:39:34;100104.56;;;15.18;80.82
44198;BME280;30157;55.512;37.764;2023-08-21T03:42:01;100106.09;;;15.28;80.75
44198;BME280;30157;55.512;37.764;2023-08-21T03:44:27;100102.50;;;15.34;79.94
44198;BME280;30157;55.512;37.764;2023-08-21T03:46:53;100095.72;;;15.25;80.02
44198;BME280;30157;55.512;37.764;2023-08-21T03:49:18;100094.50;;;15.42;80.19
44198;BME280;30157;55.512;37.764;2023-08-21T03:51:44;100101.84;;;15.67;79.70
44198;BME280;30157;55.512;37.764;2023-08-21T03:54:10;100074.50;;;15.83;78.87
44198;BME280;30157;55.512;37.764;2023-08-21T03:56:36;100066.66;;;15.83;78.18
44198;BME280;30157;55.512;37.764;2023-08-21T03:59:02;100090.56;;;16.05;77.17
44198;BME280;30157;55.512;37.764;2023-08-21T04:01:28;100074.41;;;15.86;76.98
44198;BME280;30157;55.512;37.764;2023-08-21T04:03:54;100026.75;;;15.70;76.91
44198;BME280;30157;55.512;37.764;2023-08-21T04:06:20;100069.53;;;16.44;75.93
44198;BME280;30157;55.512;37.764;2023-08-21T04:08:47;100097.19;;;16.92;74.89
44198;BME280;30157;55.512;37.764;2023-08-21T04:11:13;100104.81;;;17.02;74.55
44198;BME280;30157;55.512;37.764;2023-08-21T04:13:39;100104.22;;;16.89;74.36
44198;BME280;30157;55.512;37.764;2023-08-21T04:16:04;100082.66;;;17.12;73.90
44198;BME280;30157;55.512;37.764;2023-08-21T04:18:30;100098.28;;;17.17;73.25
44198;BME280;30157;55.512;37.764;2023-08-21T04:20:56;100050.75;;;16.63;72.73
44198;BME280;30157;55.512;37.764;2023-08-21T04:23:22;100075.63;;;16.46;73.11
44198;BME280;30157;55.512;37.764;2023-08-21T04:25:47;100104.41;;;16.48;73.76
44198;BME280;30157;55.512;37.764;2023-08-21T04:28:13;100102.81;;;16.41;74.08
44198;BME280;30157;55.512;37.764;2023-08-21T04:30:40;99972.50;;;15.80;73.77
44198;BME280;30157;55.512;37.764;2023-08-21T04:33:08;100087.25;;;16.69;73.81
44198;BME280;30157;55.512;37.764;2023-08-21T04:35:38;100105.22;;;16.85;73.19
44198;BME280;30157;55.512;37.764;2023-08-21T04:38:04;100096.81;;;17.06;72.59
44198;BME280;30157;55.512;37.764;2023-08-21T04:40:30;100041.56;;;16.79;71.88
44198;BME280;30157;55.512;37.764;2023-08-21T04:42:56;100076.00;;;17.32;71.29
44198;BME280;30157;55.512;37.764;2023-08-21T04:45:22;100039.91;;;17.10;70.62
44198;BME280;30157;55.512;37.764;2023-08-21T04:47:48;100097.22;;;17.84;70.37
44198;BME280;30157;55.512;37.764;2023-08-21T04:50:14;100094.63;;;17.82;70.02
44198;BME280;30157;55.512;37.764;2023-08-21T04:52:41;100099.09;;;17.50;69.84
44198;BME280;30157;55.512;37.764;2023-08-21T04:55:08;100084.56;;;17.38;70.41
44198;BME280;30157;55.512;37.764;2023-08-21T04:57:35;100098.13;;;17.53;69.87
44198;BME280;30157;55.512;37.764;2023-08-21T05:00:04;100073.94;;;18.01;69.07
44198;BME280;30157;55.512;37.764;2023-08-21T05:02:35;100101.59;;;18.13;68.96
44198;BME280;30157;55.512;37.764;2023-08-21T05:05:02;100085.38;;;18.55;67.71
44198;BME280;30157;55.512;37.764;2023-08-21T05:07:30;100076.31;;;19.86;64.36
44198;BME280;30157;55.512;37.764;2023-08-21T05:10:01;100062.38;;;19.84;63.10
44198;BME280;30157;55.512;37.764;2023-08-21T05:12:31;100099.28;;;20.04;62.27
44198;BME280;30157;55.512;37.764;2023-08-21T05:14:59;100104.69;;;19.77;62.67
44198;BME280;30157;55.512;37.764;2023-08-21T05:17:25;100103.91;;;20.64;61.10
44198;BME280;30157;55.512;37.764;2023-08-21T05:19:52;100102.44;;;21.60;58.87
44198;BME280;30157;55.512;37.764;2023-08-21T05:22:19;100099.72;;;22.17;57.37
44198;BME280;30157;55.512;37.764;2023-08-21T05:24:46;100108.44;;;22.91;55.04
44198;BME280;30157;55.512;37.764;2023-08-21T05:27:12;100109.28;;;22.74;53.98
44198;BME280;30157;55.512;37.764;2023-08-21T05:29:37;99984.63;;;22.46;52.66
44198;BME280;30157;55.512;37.764;2023-08-21T05:32:04;100099.25;;;23.65;51.43
44198;BME280;30157;55.512;37.764;2023-08-21T05:34:30;100072.28;;;24.06;50.69
44198;BME280;30157;55.512;37.764;2023-08-21T05:36:56;100090.50;;;24.43;49.82
44198;BME280;30157;55.512;37.764;2023-08-21T05:39:22;100092.53;;;24.84;49.70
44198;BME280;30157;55.512;37.764;2023-08-21T05:41:49;100081.78;;;25.45;47.93
44198;BME280;30157;55.512;37.764;2023-08-21T05:44:15;100058.38;;;24.47;47.15
44198;BME280;30157;55.512;37.764;2023-08-21T05:46:41;100105.47;;;25.05;48.28
44198;BME280;30157;55.512;37.764;2023-08-21T05:49:07;100099.28;;;25.62;46.70
44198;BME280;30157;55.512;37.764;2023-08-21T05:51:33;100101.66;;;25.09;46.85
44198;BME280;30157;55.512;37.764;2023-08-21T05:53:59;100079.75;;;24.30;47.79
44198;BME280;30157;55.512;37.764;2023-08-21T05:56:25;100087.22;;;23.59;48.53
44198;BME280;30157;55.512;37.764;2023-08-21T05:58:51;100095.22;;;23.42;49.20
44198;BME280;30157;55.512;37.764;2023-08-21T06:01:17;100055.59;;;22.89;49.47
44198;BME280;30157;55.512;37.764;2023-08-21T06:03:43;100102.97;;;22.05;51.23
44198;BME280;30157;55.512;37.764;2023-08-21T06:06:16;100068.69;;;22.03;52.09
44198;BME280;30157;55.512;37.764;2023-08-21T06:08:42;100037.81;;;21.29;52.89
44198;BME280;30157;55.512;37.764;2023-08-21T06:11:07;100056.31;;;22.04;51.86
44198;BME280;30157;55.512;37.764;2023-08-21T06:13:33;99993.34;;;21.39;52.08
44198;BME280;30157;55.512;37.764;2023-08-21T06:16:00;100092.53;;;21.44;53.80
44198;BME280;30157;55.512;37.764;2023-08-21T06:18:26;100089.91;;;22.91;51.22
44198;BME280;30157;55.512;37.764;2023-08-21T06:20:52;100082.03;;;23.24;50.49
44198;BME280;30157;55.512;37.764;2023-08-21T06:23:20;100080.31;;;24.21;47.95
44198;BME280;30157;55.512;37.764;2023-08-21T06:25:49;100078.44;;;25.27;46.06
44198;BME280;30157;55.512;37.764;2023-08-21T06:28:16;100080.03;;;26.14;45.02
44198;BME280;30157;55.512;37.764;2023-08-21T06:30:42;100079.28;;;26.53;43.25
44198;BME280;30157;55.512;37.764;2023-08-21T06:33:08;100077.69;;;26.63;42.46
44198;BME280;30157;55.512;37.764;2023-08-21T06:35:36;100033.94;;;26.54;41.45
44198;BME280;30157;55.512;37.764;2023-08-21T06:38:03;100063.75;;;26.59;42.13
44198;BME280;30157;55.512;37.764;2023-08-21T06:40:29;100084.00;;;26.22;42.31
44198;BME280;30157;55.512;37.764;2023-08-21T06:42:55;100046.56;;;24.69;44.53
44198;BME280;30157;55.512;37.764;2023-08-21T06:45:24;100080.66;;;24.75;44.37
44198;BME280;30157;55.512;37.764;2023-08-21T06:47:52;100083.19;;;24.16;45.63
44198;BME280;30157;55.512;37.764;2023-08-21T06:50:18;100077.06;;;24.76;44.97
44198;BME280;30157;55.512;37.764;2023-08-21T06:52:44;100075.88;;;25.25;43.58
44198;BME280;30157;55.512;37.764;2023-08-21T06:55:09;100055.19;;;24.57;44.17
44198;BME280;30157;55.512;37.764;2023-08-21T06:57:35;100083.66;;;24.39;44.97
44198;BME280;30157;55.512;37.764;2023-08-21T07:00:07;100078.53;;;23.06;47.08
44198;BME280;30157;55.512;37.764;2023-08-21T07:02:33;100078.13;;;22.26;49.17
44198;BME280;30157;55.512;37.764;2023-08-21T07:04:58;100089.06;;;21.82;49.96
44198;BME280;30157;55.512;37.764;2023-08-21T07:07:24;100099.28;;;21.31;52.17
44198;BME280;30157;55.512;37.764;2023-08-21T07:09:50;100096.16;;;21.02;52.05
44198;BME280;30157;55.512;37.764;2023-08-21T07:12:16;100106.09;;;22.67;49.43
44198;BME280;30157;55.512;37.764;2023-08-21T07:14:42;100089.69;;;24.26;45.65
44198;BME280;30157;55.512;37.764;2023-08-21T07:17:08;100093.31;;;25.29;43.13
44198;BME280;30157;55.512;37.764;2023-08-21T07:19:33;100095.22;;;25.56;41.90
44198;BME280;30157;55.512;37.764;2023-08-21T07:21:59;100091.09;;;24.48;42.92
44198;BME280;30157;55.512;37.764;2023-08-21T07:24:25;100055.25;;;23.62;44.24
44198;BME280;30157;55.512;37.764;2023-08-21T07:26:52;100108.34;;;23.10;45.42
44198;BME280;30157;55.512;37.764;2023-08-21T07:29:17;100088.47;;;22.13;47.80
44198;BME280;30157;55.512;37.764;2023-08-21T07:31:43;100101.09;;;21.49;50.22
44198;BME280;30157;55.512;37.764;2023-08-21T07:34:09;100106.47;;;21.08;51.76
44198;BME280;30157;55.512;37.764;2023-08-21T07:36:35;100066.56;;;20.75;51.56
44198;BME280;30157;55.512;37.764;2023-08-21T07:39:00;100095.38;;;20.79;52.75
44198;BME280;30157;55.512;37.764;2023-08-21T07:41:26;100080.81;;;20.48;51.75
44198;BME280;30157;55.512;37.764;2023-08-21T07:43:52;100099.53;;;21.45;48.92
44198;BME280;30157;55.512;37.764;2023-08-21T07:46:18;100106.59;;;22.40;47.19
44198;BME280;30157;55.512;37.764;2023-08-21T07:48:50;100059.44;;;24.14;43.87
44198;BME280;30157;55.512;37.764;2023-08-21T07:51:16;100075.31;;;25.63;40.12
44198;BME280;30157;55.512;37.764;2023-08-21T07:53:41;100088.97;;;23.92;42.14
44198;BME280;30157;55.512;37.764;2023-08-21T07:56:07;100089.72;;;22.78;45.22
44198;BME280;30157;55.512;37.764;2023-08-21T07:58:33;100093.69;;;22.32;46.49
44198;BME280;30157;55.512;37.764;2023-08-21T08:00:59;100095.53;;;22.30;46.20
44198;BME280;30157;55.512;37.764;2023-08-21T08:03:27;100067.59;;;22.07;47.79
44198;BME280;30157;55.512;37.764;2023-08-21T08:05:53;100075.31;;;23.66;45.13
44198;BME280;30157;55.512;37.764;2023-08-21T08:08:19;100059.97;;;22.90;45.73
44198;BME280;30157;55.512;37.764;2023-08-21T08:10:52;99951.97;;;22.47;44.72
44198;BME280;30157;55.512;37.764;2023-08-21T08:13:18;100074.56;;;23.80;44.30
44198;BME280;30157;55.512;37.764;2023-08-21T08:15:44;99975.03;;;22.61;44.47
44198;BME280;30157;55.512;37.764;2023-08-21T08:18:13;100026.06;;;22.81;44.64
44198;BME280;30157;55.512;37.764;2023-08-21T08:20:39;100069.81;;;23.22;45.20
44198;BME280;30157;55.512;37.764;2023-08-21T08:23:06;100044.28;;;24.47;41.12
44198;BME280;30157;55.512;37.764;2023-08-21T08:25:31;100038.16;;;25.76;38.81
44198;BME280;30157;55.512;37.764;2023-08-21T08:27:57;100071.63;;;26.21;37.67
44198;BME280;30157;55.512;37.764;2023-08-21T08:30:23;100029.72;;;24.24;41.49
44198;BME280;30157;55.512;37.764;2023-08-21T08:32:49;100059.91;;;23.25;43.44
44198;BME280;30157;55.512;37.764;2023-08-21T08:35:19;100069.78;;;24.80;41.64
44198;BME280;30157;55.512;37.764;2023-08-21T08:37:44;100070.34;;;26.66;39.05
44198;BME280;30157;55.512;37.764;2023-08-21T08:40:12;100025.69;;;26.72;36.71
44198;BME280;30157;55.512;37.764;2023-08-21T08:42:39;100037.72;;;26.37;37.13
44198;BME280;30157;55.512;37.764;2023-08-21T08:45:06;100049.50;;;27.25;36.37
44198;BME280;30157;55.512;37.764;2023-08-21T08:51:15;100051.88;;;28.86;33.06
44198;BME280;30157;55.512;37.764;2023-08-21T08:53:42;100015.84;;;28.69;32.17
44198;BME280;30157;55.512;37.764;2023-08-21T08:56:08;100048.63;;;29.50;32.54
44198;BME280;30157;55.512;37.764;2023-08-21T08:58:34;100027.03;;;29.42;30.51
44198;BME280;30157;55.512;37.764;2023-08-21T09:01:00;100046.31;;;29.57;30.50
44198;BME280;30157;55.512;37.764;2023-08-21T09:03:26;100033.44;;;29.51;30.12
44198;BME280;30157;55.512;37.764;2023-08-21T09:05:52;99982.31;;;29.33;29.27
44198;BME280;30157;55.512;37.764;2023-08-21T09:08:17;100003.41;;;29.59;29.43
44198;BME280;30157;55.512;37.764;2023-08-21T09:10:43;100040.53;;;30.17;29.57
44198;BME280;30157;55.512;37.764;2023-08-21T09:13:15;100034.25;;;30.39;29.32
44198;BME280;30157;55.512;37.764;2023-08-21T09:15:46;100008.91;;;30.01;29.26
44198;BME280;30157;55.512;37.764;2023-08-21T09:18:13;100038.88;;;30.16;29.51
44198;BME280;30157;55.512;37.764;2023-08-21T09:20:41;100025.66;;;30.03;29.29
44198;BME280;30157;55.512;37.764;2023-08-21T09:23:07;100034.63;;;30.13;29.50
44198;BME280;30157;55.512;37.764;2023-08-21T09:25:55;100025.66;;;30.03;28.34
44198;BME280;30157;55.512;37.764;2023-08-21T09:28:20;100019.34;;;30.04;28.93
44198;BME280;30157;55.512;37.764;2023-08-21T09:30:50;100047.94;;;30.25;28.43
44198;BME280;30157;55.512;37.764;2023-08-21T09:33:20;100037.31;;;30.35;28.22
44198;BME280;30157;55.512;37.764;2023-08-21T09:35:51;100027.09;;;30.61;26.93
44198;BME280;30157;55.512;37.764;2023-08-21T09:38:18;100024.81;;;30.56;27.68
44198;BME280;30157;55.512;37.764;2023-08-21T09:40:52;100033.91;;;30.75;26.75
44198;BME280;30157;55.512;37.764;2023-08-21T09:43:20;100022.00;;;30.58;27.95
44198;BME280;30157;55.512;37.764;2023-08-21T09:45:47;100025.66;;;30.57;28.03
44198;BME280;30157;55.512;37.764;2023-08-21T09:48:13;100015.63;;;30.59;26.81
44198;BME280;30157;55.512;37.764;2023-08-21T09:50:39;100017.97;;;30.73;27.03
44198;BME280;30157;55.512;37.764;2023-08-21T09:53:09;99986.00;;;30.29;27.94
44198;BME280;30157;55.512;37.764;2023-08-21T09:55:54;100020.47;;;30.86;27.82
44198;BME280;30157;55.512;37.764;2023-08-21T09:58:20;99982.03;;;30.45;26.35
44198;BME280;30157;55.512;37.764;2023-08-21T10:00:48;100000.03;;;30.95;26.55
44198;BME280;30157;55.512;37.764;2023-08-21T10:03:18;100014.50;;;30.82;26.66
44198;BME280;30157;55.512;37.764;2023-08-21T10:05:47;99999.50;;;30.70;25.80
44198;BME280;30157;55.512;37.764;2023-08-21T10:08:15;99960.00;;;30.41;26.63
44198;BME280;30157;55.512;37.764;2023-08-21T10:10:41;100016.28;;;30.72;26.62
44198;BME280;30157;55.512;37.764;2023-08-21T10:13:08;100016.78;;;30.03;27.17
44198;BME280;30157;55.512;37.764;2023-08-21T10:15:36;99900.09;;;29.37;26.73
44198;BME280;30157;55.512;37.764;2023-08-21T10:18:23;100006.38;;;29.88;27.09
44198;BME280;30157;55.512;37.764;2023-08-21T10:20:50;100011.06;;;30.28;28.02
44198;BME280;30157;55.512;37.764;2023-08-21T10:23:28;100007.75;;;30.57;26.15
44198;BME280;30157;55.512;37.764;2023-08-21T10:25:59;100005.66;;;30.19;27.58
44198;BME280;30157;55.512;37.764;2023-08-21T10:28:24;99980.06;;;29.61;28.26
44198;BME280;30157;55.512;37.764;2023-08-21T10:30:50;100001.28;;;27.54;31.37
44198;BME280;30157;55.512;37.764;2023-08-21T10:33:17;100009.56;;;25.80;33.73
44198;BME280;30157;55.512;37.764;2023-08-21T10:35:45;100004.41;;;24.93;35.54
44198;BME280;30157;55.512;37.764;2023-08-21T10:38:15;99999.81;;;26.74;32.89
44198;BME280;30157;55.512;37.764;2023-08-21T10:41:10;99998.03;;;28.57;30.17
44198;BME280;30157;55.512;37.764;2023-08-21T10:43:40;99990.34;;;29.44;29.35
44198;BME280;30157;55.512;37.764;2023-08-21T10:46:07;99970.63;;;29.57;27.36
44198;BME280;30157;55.512;37.764;2023-08-21T10:48:35;99994.09;;;29.97;27.89
44198;BME280;30157;55.512;37.764;2023-08-21T10:51:03;99974.69;;;29.72;28.04
44198;BME280;30157;55.512;37.764;2023-08-21T10:53:30;99936.13;;;27.82;29.55
44198;BME280;30157;55.512;37.764;2023-08-21T10:55:57;99991.25;;;28.53;30.15
44198;BME280;30157;55.512;37.764;2023-08-21T10:58:23;99970.47;;;28.22;29.68
44198;BME280;30157;55.512;37.764;2023-08-21T11:00:59;99984.78;;;28.91;29.42
44198;BME280;30157;55.512;37.764;2023-08-21T11:03:25;99941.69;;;29.83;28.17
44198;BME280;30157;55.512;37.764;2023-08-21T11:06:05;99958.84;;;30.86;27.33
44198;BME280;30157;55.512;37.764;2023-08-21T11:08:36;99968.81;;;29.90;28.03
44198;BME280;30157;55.512;37.764;2023-08-21T11:11:05;99937.59;;;27.38;30.65
44198;BME280;30157;55.512;37.764;2023-08-21T11:13:31;99987.38;;;25.81;33.54
44198;BME280;30157;55.512;37.764;2023-08-21T11:16:02;99860.88;;;24.10;35.29
44198;BME280;30157;55.512;37.764;2023-08-21T11:18:38;99923.59;;;23.95;37.15
44198;BME280;30157;55.512;37.764;2023-08-21T11:21:08;99925.94;;;24.15;36.81
44198;BME280;30157;55.512;37.764;2023-08-21T11:23:39;99936.56;;;27.52;32.14
44198;BME280;30157;55.512;37.764;2023-08-21T11:26:09;99962.63;;;29.89;28.25
44198;BME280;30157;55.512;37.764;2023-08-21T11:28:35;99960.69;;;31.36;26.81
44198;BME280;30157;55.512;37.764;2023-08-21T11:31:01;99959.16;;;32.41;25.57
44198;BME280;30157;55.512;37.764;2023-08-21T11:33:27;99918.94;;;32.59;24.74
44198;BME280;30157;55.512;37.764;2023-08-21T11:35:54;99946.63;;;32.70;23.91
44198;BME280;30157;55.512;37.764;2023-08-21T11:38:22;99948.56;;;32.87;23.58
44198;BME280;30157;55.512;37.764;2023-08-21T11:41:02;99939.34;;;33.17;23.59
44198;BME280;30157;55.512;37.764;2023-08-21T11:43:37;99953.16;;;33.69;23.56
44198;BME280;30157;55.512;37.764;2023-08-21T11:46:07;99934.66;;;33.83;23.09
44198;BME280;30157;55.512;37.764;2023-08-21T11:48:36;99945.38;;;34.02;23.04
44198;BME280;30157;55.512;37.764;2023-08-21T11:51:02;99952.31;;;34.04;22.82
44198;BME280;30157;55.512;37.764;2023-08-21T11:53:39;99936.78;;;33.44;22.33
44198;BME280;30157;55.512;37.764;2023-08-21T11:56:17;99944.31;;;33.40;22.51
44198;BME280;30157;55.512;37.764;2023-08-21T11:58:44;99941.84;;;34.01;21.82
44198;BME280;30157;55.512;37.764;2023-08-21T12:01:20;99949.03;;;34.37;21.70
44198;BME280;30157;55.512;37.764;2023-08-21T12:03:46;99908.09;;;33.71;21.77
44198;BME280;30157;55.512;37.764;2023-08-21T12:06:46;99947.09;;;33.48;22.60
44198;BME280;30157;55.512;37.764;2023-08-21T12:09:36;99931.69;;;33.59;22.87
44198;BME280;30157;55.512;37.764;2023-08-21T12:12:16;99891.94;;;33.16;22.94
44198;BME280;30157;55.512;37.764;2023-08-21T12:16:06;99882.69;;;31.69;24.12
44198;BME280;30157;55.512;37.764;2023-08-21T12:18:31;99794.53;;;29.73;25.38
44198;BME280;30157;55.512;37.764;2023-08-21T12:20:57;99938.75;;;31.81;24.54
44198;BME280;30157;55.512;37.764;2023-08-21T12:23:23;99943.53;;;32.64;23.70
44198;BME280;30157;55.512;37.764;2023-08-21T12:25:48;99931.41;;;33.26;22.89
44198;BME280;30157;55.512;37.764;2023-08-21T12:28:15;99891.97;;;33.35;22.68
44198;BME280;30157;55.512;37.764;2023-08-21T12:30:40;99920.34;;;33.65;21.97
44198;BME280;30157;55.512;37.764;2023-08-21T12:33:06;99925.88;;;33.63;21.67
44198;BME280;30157;55.512;37.764;2023-08-21T12:35:33;99933.63;;;34.03;21.70
44198;BME280;30157;55.512;37.764;2023-08-21T12:37:58;99918.19;;;33.87;21.38
44198;BME280;30157;55.512;37.764;2023-08-21T12:40:25;99931.31;;;33.54;22.05
44198;BME280;30157;55.512;37.764;2023-08-21T12:42:50;99921.88;;;33.04;22.32
44198;BME280;30157;55.512;37.764;2023-08-21T12:45:16;99900.91;;;33.07;22.40
44198;BME280;30157;55.512;37.764;2023-08-21T12:47:42;99906.44;;;33.06;22.59
44198;BME280;30157;55.512;37.764;2023-08-21T12:50:09;99902.81;;;32.69;23.15
44198;BME280;30157;55.512;37.764;2023-08-21T12:52:34;99885.47;;;32.26;22.85